sensor_id;sensor_type;location;lat;lon;timestamp;P1;durP1;ratioP1;P2;durP2;ratioP2
72335;SDS011;65062;48.446;8.834;2022-11-24T00:02:06;11.02;;;1.90;;
72335;SDS011;65062;48.446;8.834;2022-11-24T00:05:07;8.70;;;2.20;;
72335;SDS011;65062;48.446;8.834;2022-11-24T00:08:07;6.85;;;1.75;;
72335;SDS011;65062;48.446;8.834;2022-11-24T00:11:09;8.00;;;1.98;;
72335;SDS011;65062;48.446;8.834;2022-11-24T00:14:14;4.85;;;1.77;;
72335;SDS011;65062;48.446;8.834;2022-11-24T00:17:14;6.20;;;1.40;;
72335;SDS011;65062;48.446;8.834;2022-11-24T00:20:15;4.80;;;2.20;;
72335;SDS011;65062;48.446;8.834;2022-11-24T00:23:16;3.45;;;1.40;;
72335;SDS011;65062;48.446;8.834;2022-11-24T00:26:17;4.65;;;1.67;;
72335;SDS011;65062;48.446;8.834;2022-11-24T00:29:19;6.53;;;2.00;;
72335;SDS011;65062;48.446;8.834;2022-11-24T00:32:20;4.20;;;1.60;;
72335;SDS011;65062;48.446;8.834;2022-11-24T00:35:20;6.85;;;1.38;;
72335;SDS011;65062;48.446;8.834;2022-11-24T00:38:21;4.15;;;1.50;;
72335;SDS011;65062;48.446;8.834;2022-11-24T00:41:21;6.22;;;1.52;;
72335;SDS011;65062;48.446;8.834;2022-11-24T00:44:22;5.13;;;1.60;;
72335;SDS011;65062;48.446;8.834;2022-11-24T00:47:23;4.05;;;1.00;;
72335;SDS011;65062;48.446;8.834;2022-11-24T00:50:23;3.05;;;1.20;;
72335;SDS011;65062;48.446;8.834;2022-11-24T00:53:23;7.82;;;1.75;;
72335;SDS011;65062;48.446;8.834;2022-11-24T00:56:24;4.28;;;1.05;;
72335;SDS011;65062;48.446;8.834;2022-11-24T00:59:26;4.75;;;1.15;;
72335;SDS011;65062;48.446;8.834;2022-11-24T01:02:26;4.78;;;0.95;;
72335;SDS011;65062;48.446;8.834;2022-11-24T01:05:26;6.78;;;1.25;;
72335;SDS011;65062;48.446;8.834;2022-11-24T01:08:27;4.35;;;1.02;;
72335;SDS011;65062;48.446;8.834;2022-11-24T01:11:28;3.25;;;1.10;;
72335;SDS011;65062;48.446;8.834;2022-11-24T01:14:54;3.28;;;1.10;;
72335;SDS011;65062;48.446;8.834;2022-11-24T01:17:54;1.63;;;0.80;;
72335;SDS011;65062;48.446;8.834;2022-11-24T01:20:55;6.35;;;1.05;;
72335;SDS011;65062;48.446;8.834;2022-11-24T01:23:56;3.40;;;0.90;;
72335;SDS011;65062;48.446;8.834;2022-11-24T01:26:56;4.35;;;0.65;;
72335;SDS011;65062;48.446;8.834;2022-11-24T01:29:57;5.03;;;0.95;;
72335;SDS011;65062;48.446;8.834;2022-11-24T01:32:57;2.72;;;0.70;;
72335;SDS011;65062;48.446;8.834;2022-11-24T01:35:57;3.05;;;1.00;;
72335;SDS011;65062;48.446;8.834;2022-11-24T01:38:58;5.50;;;0.55;;
72335;SDS011;65062;48.446;8.834;2022-11-24T01:42:01;2.50;;;0.63;;
72335;SDS011;65062;48.446;8.834;2022-11-24T01:46:02;2.90;;;0.50;;
72335;SDS011;65062;48.446;8.834;2022-11-24T01:51:44;3.53;;;0.80;;
72335;SDS011;65062;48.446;8.834;2022-11-24T01:54:57;3.63;;;0.63;;
72335;SDS011;65062;48.446;8.834;2022-11-24T02:01:12;1.92;;;0.52;;
72335;SDS011;65062;48.446;8.834;2022-11-24T02:04:13;4.57;;;0.85;;
72335;SDS011;65062;48.446;8.834;2022-11-24T02:07:16;4.10;;;0.77;;
72335;SDS011;65062;48.446;8.834;2022-11-24T02:10:17;2.50;;;0.70;;
72335;SDS011;65062;48.446;8.834;2022-11-24T02:13:18;2.88;;;0.73;;
72335;SDS011;65062;48.446;8.834;2022-11-24T02:16:18;2.80;;;0.50;;
72335;SDS011;65062;48.446;8.834;2022-11-24T02:22:38;4.45;;;0.77;;
72335;SDS011;65062;48.446;8.834;2022-11-24T02:25:45;2.92;;;0.70;;
72335;SDS011;65062;48.446;8.834;2022-11-24T02:28:51;3.20;;;0.70;;
72335;SDS011;65062;48.446;8.834;2022-11-24T02:31:57;1.33;;;0.57;;
72335;SDS011;65062;48.446;8.834;2022-11-24T02:35:01;0.90;;;0.60;;
72335;SDS011;65062;48.446;8.834;2022-11-24T02:38:03;2.40;;;0.60;;
72335;SDS011;65062;48.446;8.834;2022-11-24T02:41:05;2.13;;;0.73;;
72335;SDS011;65062;48.446;8.834;2022-11-24T02:44:08;3.40;;;0.50;;
72335;SDS011;65062;48.446;8.834;2022-11-24T02:47:09;0.90;;;0.43;;
72335;SDS011;65062;48.446;8.834;2022-11-24T02:50:11;3.20;;;0.85;;
72335;SDS011;65062;48.446;8.834;2022-11-24T02:53:12;1.52;;;0.73;;
72335;SDS011;65062;48.446;8.834;2022-11-24T02:56:12;2.90;;;0.57;;
72335;SDS011;65062;48.446;8.834;2022-11-24T02:59:12;1.98;;;0.75;;
72335;SDS011;65062;48.446;8.834;2022-11-24T03:02:13;0.82;;;0.50;;
72335;SDS011;65062;48.446;8.834;2022-11-24T03:05:13;2.10;;;0.60;;
72335;SDS011;65062;48.446;8.834;2022-11-24T03:08:14;0.85;;;0.30;;
72335;SDS011;65062;48.446;8.834;2022-11-24T03:11:14;3.13;;;0.50;;
72335;SDS011;65062;48.446;8.834;2022-11-24T03:14:15;1.55;;;0.70;;
72335;SDS011;65062;48.446;8.834;2022-11-24T03:17:15;2.10;;;0.82;;
72335;SDS011;65062;48.446;8.834;2022-11-24T03:20:16;2.67;;;0.73;;
72335;SDS011;65062;48.446;8.834;2022-11-24T03:23:16;4.18;;;0.80;;
72335;SDS011;65062;48.446;8.834;2022-11-24T03:26:17;2.55;;;0.70;;
72335;SDS011;65062;48.446;8.834;2022-11-24T03:29:18;3.13;;;0.80;;
72335;SDS011;65062;48.446;8.834;2022-11-24T03:32:19;3.13;;;0.80;;
72335;SDS011;65062;48.446;8.834;2022-11-24T03:35:20;2.78;;;0.85;;
72335;SDS011;65062;48.446;8.834;2022-11-24T03:38:21;2.25;;;0.90;;
72335;SDS011;65062;48.446;8.834;2022-11-24T03:41:21;5.05;;;0.90;;
72335;SDS011;65062;48.446;8.834;2022-11-24T03:44:22;2.53;;;0.88;;
72335;SDS011;65062;48.446;8.834;2022-11-24T03:47:22;2.83;;;0.93;;
72335;SDS011;65062;48.446;8.834;2022-11-24T03:50:22;5.07;;;1.42;;
72335;SDS011;65062;48.446;8.834;2022-11-24T03:53:23;4.22;;;1.00;;
72335;SDS011;65062;48.446;8.834;2022-11-24T03:56:24;2.25;;;0.90;;
72335;SDS011;65062;48.446;8.834;2022-11-24T03:59:25;1.50;;;0.77;;
72335;SDS011;65062;48.446;8.834;2022-11-24T04:02:25;2.30;;;0.82;;
72335;SDS011;65062;48.446;8.834;2022-11-24T04:05:25;2.85;;;0.95;;
72335;SDS011;65062;48.446;8.834;2022-11-24T04:08:26;4.50;;;1.50;;
72335;SDS011;65062;48.446;8.834;2022-11-24T04:11:26;13.45;;;5.97;;
72335;SDS011;65062;48.446;8.834;2022-11-24T04:14:49;22.38;;;15.45;;
72335;SDS011;65062;48.446;8.834;2022-11-24T04:17:50;6.43;;;5.05;;
72335;SDS011;65062;48.446;8.834;2022-11-24T04:20:53;5.22;;;2.92;;
72335;SDS011;65062;48.446;8.834;2022-11-24T04:23:53;3.95;;;3.65;;
72335;SDS011;65062;48.446;8.834;2022-11-24T04:26:54;1.45;;;1.05;;
72335;SDS011;65062;48.446;8.834;2022-11-24T04:29:54;11.95;;;7.47;;
72335;SDS011;65062;48.446;8.834;2022-11-24T04:32:54;1.65;;;1.10;;
72335;SDS011;65062;48.446;8.834;2022-11-24T04:35:55;4.25;;;1.02;;
72335;SDS011;65062;48.446;8.834;2022-11-24T04:38:56;2.83;;;1.05;;
72335;SDS011;65062;48.446;8.834;2022-11-24T04:41:56;1.42;;;0.88;;
72335;SDS011;65062;48.446;8.834;2022-11-24T04:44:57;4.35;;;0.90;;
72335;SDS011;65062;48.446;8.834;2022-11-24T04:47:57;5.47;;;1.42;;
72335;SDS011;65062;48.446;8.834;2022-11-24T04:50:57;6.57;;;1.52;;
72335;SDS011;65062;48.446;8.834;2022-11-24T04:53:58;4.72;;;1.70;;
72335;SDS011;65062;48.446;8.834;2022-11-24T04:56:58;7.85;;;1.50;;
72335;SDS011;65062;48.446;8.834;2022-11-24T04:59:58;5.38;;;1.08;;
72335;SDS011;65062;48.446;8.834;2022-11-24T05:02:59;4.72;;;1.10;;
72335;SDS011;65062;48.446;8.834;2022-11-24T05:05:59;6.72;;;1.50;;
72335;SDS011;65062;48.446;8.834;2022-11-24T05:08:59;3.42;;;0.90;;
72335;SDS011;65062;48.446;8.834;2022-11-24T05:12:00;3.60;;;1.10;;
72335;SDS011;65062;48.446;8.834;2022-11-24T05:15:01;7.18;;;1.40;;
72335;SDS011;65062;48.446;8.834;2022-11-24T05:18:04;6.63;;;1.15;;
72335;SDS011;65062;48.446;8.834;2022-11-24T05:21:05;5.63;;;1.13;;
72335;SDS011;65062;48.446;8.834;2022-11-24T05:24:05;3.47;;;1.30;;
72335;SDS011;65062;48.446;8.834;2022-11-24T05:27:06;4.85;;;2.05;;
72335;SDS011;65062;48.446;8.834;2022-11-24T05:30:07;5.68;;;1.50;;
72335;SDS011;65062;48.446;8.834;2022-11-24T05:33:10;5.45;;;1.60;;
72335;SDS011;65062;48.446;8.834;2022-11-24T05:36:17;5.25;;;1.40;;
72335;SDS011;65062;48.446;8.834;2022-11-24T05:39:36;4.13;;;1.10;;
72335;SDS011;65062;48.446;8.834;2022-11-24T05:42:37;3.80;;;1.17;;
72335;SDS011;65062;48.446;8.834;2022-11-24T05:45:40;3.88;;;1.20;;
72335;SDS011;65062;48.446;8.834;2022-11-24T05:48:42;3.97;;;1.30;;
72335;SDS011;65062;48.446;8.834;2022-11-24T05:51:42;4.93;;;2.05;;
72335;SDS011;65062;48.446;8.834;2022-11-24T05:54:42;5.03;;;2.17;;
72335;SDS011;65062;48.446;8.834;2022-11-24T05:57:43;6.20;;;3.55;;
72335;SDS011;65062;48.446;8.834;2022-11-24T06:00:43;7.47;;;2.63;;
72335;SDS011;65062;48.446;8.834;2022-11-24T06:03:43;5.90;;;2.40;;
72335;SDS011;65062;48.446;8.834;2022-11-24T06:06:45;3.90;;;1.95;;
72335;SDS011;65062;48.446;8.834;2022-11-24T06:09:45;8.05;;;3.35;;
72335;SDS011;65062;48.446;8.834;2022-11-24T06:12:46;6.13;;;2.65;;
72335;SDS011;65062;48.446;8.834;2022-11-24T06:15:46;7.30;;;1.85;;
72335;SDS011;65062;48.446;8.834;2022-11-24T06:18:46;4.93;;;2.67;;
72335;SDS011;65062;48.446;8.834;2022-11-24T06:21:47;6.05;;;2.35;;
72335;SDS011;65062;48.446;8.834;2022-11-24T06:24:47;5.43;;;2.58;;
72335;SDS011;65062;48.446;8.834;2022-11-24T06:27:49;9.25;;;2.88;;
72335;SDS011;65062;48.446;8.834;2022-11-24T06:30:50;6.72;;;2.63;;
72335;SDS011;65062;48.446;8.834;2022-11-24T06:33:50;2.65;;;1.63;;
72335;SDS011;65062;48.446;8.834;2022-11-24T06:36:51;3.60;;;1.98;;
72335;SDS011;65062;48.446;8.834;2022-11-24T06:39:51;5.78;;;2.10;;
72335;SDS011;65062;48.446;8.834;2022-11-24T06:42:51;5.78;;;1.83;;
72335;SDS011;65062;48.446;8.834;2022-11-24T06:45:52;4.82;;;2.22;;
72335;SDS011;65062;48.446;8.834;2022-11-24T06:48:52;7.07;;;3.88;;
72335;SDS011;65062;48.446;8.834;2022-11-24T06:51:53;7.35;;;3.33;;
72335;SDS011;65062;48.446;8.834;2022-11-24T06:54:54;6.57;;;1.73;;
72335;SDS011;65062;48.446;8.834;2022-11-24T06:57:54;4.47;;;1.65;;
72335;SDS011;65062;48.446;8.834;2022-11-24T07:00:55;4.18;;;1.38;;
72335;SDS011;65062;48.446;8.834;2022-11-24T07:03:56;5.97;;;1.70;;
72335;SDS011;65062;48.446;8.834;2022-11-24T07:06:56;4.28;;;1.80;;
72335;SDS011;65062;48.446;8.834;2022-11-24T07:09:56;5.68;;;1.60;;
72335;SDS011;65062;48.446;8.834;2022-11-24T07:12:57;3.92;;;1.88;;
72335;SDS011;65062;48.446;8.834;2022-11-24T07:15:57;3.85;;;1.42;;
72335;SDS011;65062;48.446;8.834;2022-11-24T07:18:58;7.90;;;1.70;;
72335;SDS011;65062;48.446;8.834;2022-11-24T07:21:59;4.30;;;1.50;;
72335;SDS011;65062;48.446;8.834;2022-11-24T07:25:00;4.45;;;1.80;;
72335;SDS011;65062;48.446;8.834;2022-11-24T07:28:00;7.18;;;3.33;;
72335;SDS011;65062;48.446;8.834;2022-11-24T07:31:04;5.95;;;2.45;;
72335;SDS011;65062;48.446;8.834;2022-11-24T07:34:06;9.25;;;2.35;;
72335;SDS011;65062;48.446;8.834;2022-11-24T07:37:06;7.57;;;2.70;;
72335;SDS011;65062;48.446;8.834;2022-11-24T07:40:06;12.65;;;3.42;;
72335;SDS011;65062;48.446;8.834;2022-11-24T07:43:07;7.45;;;2.03;;
72335;SDS011;65062;48.446;8.834;2022-11-24T07:46:09;5.72;;;1.70;;
72335;SDS011;65062;48.446;8.834;2022-11-24T07:49:12;8.65;;;2.05;;
72335;SDS011;65062;48.446;8.834;2022-11-24T07:52:12;6.72;;;2.17;;
72335;SDS011;65062;48.446;8.834;2022-11-24T07:55:12;6.93;;;2.60;;
72335;SDS011;65062;48.446;8.834;2022-11-24T07:58:13;6.35;;;1.98;;
72335;SDS011;65062;48.446;8.834;2022-11-24T08:01:14;6.22;;;1.95;;
72335;SDS011;65062;48.446;8.834;2022-11-24T08:04:16;6.85;;;2.50;;
72335;SDS011;65062;48.446;8.834;2022-11-24T08:07:16;6.68;;;3.80;;
72335;SDS011;65062;48.446;8.834;2022-11-24T08:10:17;12.07;;;4.78;;
72335;SDS011;65062;48.446;8.834;2022-11-24T08:13:18;7.95;;;4.47;;
72335;SDS011;65062;48.446;8.834;2022-11-24T08:16:18;8.88;;;4.20;;
72335;SDS011;65062;48.446;8.834;2022-11-24T08:19:20;7.15;;;2.72;;
72335;SDS011;65062;48.446;8.834;2022-11-24T08:22:20;10.00;;;3.28;;
72335;SDS011;65062;48.446;8.834;2022-11-24T08:25:21;17.88;;;7.70;;
72335;SDS011;65062;48.446;8.834;2022-11-24T08:28:24;10.85;;;5.78;;
72335;SDS011;65062;48.446;8.834;2022-11-24T08:31:25;19.23;;;7.75;;
72335;SDS011;65062;48.446;8.834;2022-11-24T08:34:31;13.40;;;5.45;;
72335;SDS011;65062;48.446;8.834;2022-11-24T08:37:31;16.23;;;8.05;;
72335;SDS011;65062;48.446;8.834;2022-11-24T08:40:32;12.18;;;4.30;;
72335;SDS011;65062;48.446;8.834;2022-11-24T08:43:32;7.47;;;4.15;;
72335;SDS011;65062;48.446;8.834;2022-11-24T08:46:33;15.07;;;4.38;;
72335;SDS011;65062;48.446;8.834;2022-11-24T08:49:33;12.48;;;5.50;;
72335;SDS011;65062;48.446;8.834;2022-11-24T08:52:34;16.70;;;6.47;;
72335;SDS011;65062;48.446;8.834;2022-11-24T08:55:34;15.02;;;8.57;;
72335;SDS011;65062;48.446;8.834;2022-11-24T08:58:35;15.00;;;7.88;;
72335;SDS011;65062;48.446;8.834;2022-11-24T09:01:36;19.65;;;10.65;;
72335;SDS011;65062;48.446;8.834;2022-11-24T09:04:37;11.45;;;5.90;;
72335;SDS011;65062;48.446;8.834;2022-11-24T09:07:37;10.80;;;4.80;;
72335;SDS011;65062;48.446;8.834;2022-11-24T09:10:38;9.20;;;3.38;;
72335;SDS011;65062;48.446;8.834;2022-11-24T09:13:39;9.30;;;3.63;;
72335;SDS011;65062;48.446;8.834;2022-11-24T09:16:40;18.92;;;6.63;;
72335;SDS011;65062;48.446;8.834;2022-11-24T09:19:40;9.10;;;3.80;;
72335;SDS011;65062;48.446;8.834;2022-11-24T09:22:40;10.88;;;5.07;;
72335;SDS011;65062;48.446;8.834;2022-11-24T09:25:42;7.82;;;4.85;;
72335;SDS011;65062;48.446;8.834;2022-11-24T09:28:42;13.05;;;7.13;;
72335;SDS011;65062;48.446;8.834;2022-11-24T09:31:43;13.02;;;6.88;;
72335;SDS011;65062;48.446;8.834;2022-11-24T09:34:43;9.35;;;4.40;;
72335;SDS011;65062;48.446;8.834;2022-11-24T09:37:44;3.00;;;2.10;;
72335;SDS011;65062;48.446;8.834;2022-11-24T09:40:44;4.40;;;2.10;;
72335;SDS011;65062;48.446;8.834;2022-11-24T09:47:04;2.08;;;0.82;;
72335;SDS011;65062;48.446;8.834;2022-11-24T09:50:14;2.97;;;1.20;;
72335;SDS011;65062;48.446;8.834;2022-11-24T09:57:04;1.67;;;0.60;;
72335;SDS011;65062;48.446;8.834;2022-11-24T10:00:10;3.45;;;1.77;;
72335;SDS011;65062;48.446;8.834;2022-11-24T10:03:14;1.38;;;0.57;;
72335;SDS011;65062;48.446;8.834;2022-11-24T10:06:26;1.42;;;0.63;;
72335;SDS011;65062;48.446;8.834;2022-11-24T10:16:52;2.90;;;0.70;;
72335;SDS011;65062;48.446;8.834;2022-11-24T10:27:18;1.30;;;0.40;;
72335;SDS011;65062;48.446;8.834;2022-11-24T10:30:24;3.05;;;0.60;;
72335;SDS011;65062;48.446;8.834;2022-11-24T10:33:25;2.25;;;0.50;;
72335;SDS011;65062;48.446;8.834;2022-11-24T10:36:33;2.65;;;0.55;;
72335;SDS011;65062;48.446;8.834;2022-11-24T10:42:58;2.55;;;0.60;;
72335;SDS011;65062;48.446;8.834;2022-11-24T10:45:59;1.65;;;0.52;;
72335;SDS011;65062;48.446;8.834;2022-11-24T10:49:22;2.97;;;0.80;;
72335;SDS011;65062;48.446;8.834;2022-11-24T10:52:31;2.40;;;0.70;;
72335;SDS011;65062;48.446;8.834;2022-11-24T10:58:57;2.58;;;0.43;;
72335;SDS011;65062;48.446;8.834;2022-11-24T11:08:32;3.00;;;0.47;;
72335;SDS011;65062;48.446;8.834;2022-11-24T11:11:33;2.92;;;0.40;;
72335;SDS011;65062;48.446;8.834;2022-11-24T11:14:35;1.17;;;0.30;;
72335;SDS011;65062;48.446;8.834;2022-11-24T11:17:36;3.90;;;0.93;;
72335;SDS011;65062;48.446;8.834;2022-11-24T11:20:37;3.40;;;0.47;;
72335;SDS011;65062;48.446;8.834;2022-11-24T11:23:38;3.17;;;0.70;;
72335;SDS011;65062;48.446;8.834;2022-11-24T11:26:39;2.00;;;0.50;;
72335;SDS011;65062;48.446;8.834;2022-11-24T11:29:43;1.88;;;0.40;;
72335;SDS011;65062;48.446;8.834;2022-11-24T11:33:02;1.83;;;0.40;;
72335;SDS011;65062;48.446;8.834;2022-11-24T11:36:07;2.78;;;0.70;;
72335;SDS011;65062;48.446;8.834;2022-11-24T11:42:26;3.10;;;0.70;;
72335;SDS011;65062;48.446;8.834;2022-11-24T11:48:37;3.97;;;1.00;;
72335;SDS011;65062;48.446;8.834;2022-11-24T12:01:11;3.15;;;1.08;;
72335;SDS011;65062;48.446;8.834;2022-11-24T12:11:25;3.88;;;0.90;;
72335;SDS011;65062;48.446;8.834;2022-11-24T12:17:51;3.45;;;0.90;;
72335;SDS011;65062;48.446;8.834;2022-11-24T12:27:31;3.78;;;1.00;;
72335;SDS011;65062;48.446;8.834;2022-11-24T12:30:42;3.50;;;0.70;;
72335;SDS011;65062;48.446;8.834;2022-11-24T12:44:11;6.30;;;1.10;;
72335;SDS011;65062;48.446;8.834;2022-11-24T12:50:51;4.25;;;0.90;;
72335;SDS011;65062;48.446;8.834;2022-11-24T12:53:54;3.38;;;0.80;;
72335;SDS011;65062;48.446;8.834;2022-11-24T12:57:09;2.22;;;0.75;;
72335;SDS011;65062;48.446;8.834;2022-11-24T13:00:17;4.05;;;0.90;;
72335;SDS011;65062;48.446;8.834;2022-11-24T13:03:26;4.28;;;1.10;;
72335;SDS011;65062;48.446;8.834;2022-11-24T13:13:22;2.08;;;0.80;;
72335;SDS011;65062;48.446;8.834;2022-11-24T13:16:27;2.67;;;0.60;;
72335;SDS011;65062;48.446;8.834;2022-11-24T13:19:28;4.20;;;0.73;;
72335;SDS011;65062;48.446;8.834;2022-11-24T13:22:32;5.55;;;0.80;;
72335;SDS011;65062;48.446;8.834;2022-11-24T13:25:34;2.80;;;0.70;;
72335;SDS011;65062;48.446;8.834;2022-11-24T13:35:12;3.67;;;0.90;;
72335;SDS011;65062;48.446;8.834;2022-11-24T13:44:59;4.80;;;1.00;;
72335;SDS011;65062;48.446;8.834;2022-11-24T13:48:02;4.13;;;1.48;;
72335;SDS011;65062;48.446;8.834;2022-11-24T13:51:28;4.78;;;1.00;;
72335;SDS011;65062;48.446;8.834;2022-11-24T13:57:36;2.20;;;0.90;;
72335;SDS011;65062;48.446;8.834;2022-11-24T14:07:39;3.58;;;0.93;;
72335;SDS011;65062;48.446;8.834;2022-11-24T14:10:41;3.40;;;1.02;;
72335;SDS011;65062;48.446;8.834;2022-11-24T14:13:42;2.22;;;0.80;;
72335;SDS011;65062;48.446;8.834;2022-11-24T14:16:42;3.42;;;1.30;;
72335;SDS011;65062;48.446;8.834;2022-11-24T14:19:44;4.95;;;1.05;;
72335;SDS011;65062;48.446;8.834;2022-11-24T14:22:52;4.65;;;1.00;;
72335;SDS011;65062;48.446;8.834;2022-11-24T14:25:52;3.22;;;0.95;;
72335;SDS011;65062;48.446;8.834;2022-11-24T14:28:53;3.60;;;1.27;;
72335;SDS011;65062;48.446;8.834;2022-11-24T14:32:01;4.45;;;1.35;;
72335;SDS011;65062;48.446;8.834;2022-11-24T14:35:19;10.00;;;3.13;;
72335;SDS011;65062;48.446;8.834;2022-11-24T14:38:22;7.75;;;1.90;;
72335;SDS011;65062;48.446;8.834;2022-11-24T14:41:23;11.82;;;3.00;;
72335;SDS011;65062;48.446;8.834;2022-11-24T14:44:27;18.95;;;4.70;;
72335;SDS011;65062;48.446;8.834;2022-11-24T14:47:31;31.88;;;8.98;;
72335;SDS011;65062;48.446;8.834;2022-11-24T14:50:35;21.00;;;6.13;;
72335;SDS011;65062;48.446;8.834;2022-11-24T14:53:35;17.77;;;5.22;;
72335;SDS011;65062;48.446;8.834;2022-11-24T14:56:40;14.82;;;4.72;;
72335;SDS011;65062;48.446;8.834;2022-11-24T15:03:24;10.20;;;3.42;;
72335;SDS011;65062;48.446;8.834;2022-11-24T15:06:24;6.10;;;1.65;;
72335;SDS011;65062;48.446;8.834;2022-11-24T15:12:49;6.85;;;2.45;;
72335;SDS011;65062;48.446;8.834;2022-11-24T15:15:54;4.97;;;1.75;;
72335;SDS011;65062;48.446;8.834;2022-11-24T15:19:00;10.07;;;2.75;;
72335;SDS011;65062;48.446;8.834;2022-11-24T15:22:25;7.43;;;2.80;;
72335;SDS011;65062;48.446;8.834;2022-11-24T15:25:38;5.47;;;1.60;;
72335;SDS011;65062;48.446;8.834;2022-11-24T15:28:39;3.90;;;1.45;;
72335;SDS011;65062;48.446;8.834;2022-11-24T15:31:40;6.75;;;2.15;;
72335;SDS011;65062;48.446;8.834;2022-11-24T15:34:41;6.95;;;2.80;;
72335;SDS011;65062;48.446;8.834;2022-11-24T15:37:41;13.32;;;3.58;;
72335;SDS011;65062;48.446;8.834;2022-11-24T15:40:43;4.47;;;2.10;;
72335;SDS011;65062;48.446;8.834;2022-11-24T15:43:45;7.03;;;1.70;;
72335;SDS011;65062;48.446;8.834;2022-11-24T15:46:46;2.38;;;1.13;;
72335;SDS011;65062;48.446;8.834;2022-11-24T15:49:47;6.28;;;1.17;;
72335;SDS011;65062;48.446;8.834;2022-11-24T15:52:47;4.18;;;1.70;;
72335;SDS011;65062;48.446;8.834;2022-11-24T15:55:48;5.88;;;2.10;;
72335;SDS011;65062;48.446;8.834;2022-11-24T15:58:49;12.38;;;5.88;;
72335;SDS011;65062;48.446;8.834;2022-11-24T16:01:49;19.10;;;6.57;;
72335;SDS011;65062;48.446;8.834;2022-11-24T16:04:50;12.95;;;4.10;;
72335;SDS011;65062;48.446;8.834;2022-11-24T16:07:50;12.02;;;4.47;;
72335;SDS011;65062;48.446;8.834;2022-11-24T16:10:51;10.85;;;4.13;;
72335;SDS011;65062;48.446;8.834;2022-11-24T16:13:51;12.73;;;4.38;;
72335;SDS011;65062;48.446;8.834;2022-11-24T16:16:52;10.27;;;3.80;;
72335;SDS011;65062;48.446;8.834;2022-11-24T16:19:52;8.88;;;3.63;;
72335;SDS011;65062;48.446;8.834;2022-11-24T16:22:52;9.73;;;3.47;;
72335;SDS011;65062;48.446;8.834;2022-11-24T16:25:53;8.15;;;3.30;;
72335;SDS011;65062;48.446;8.834;2022-11-24T16:28:53;11.40;;;4.03;;
72335;SDS011;65062;48.446;8.834;2022-11-24T16:31:54;9.63;;;4.80;;
72335;SDS011;65062;48.446;8.834;2022-11-24T16:34:54;5.90;;;2.85;;
72335;SDS011;65062;48.446;8.834;2022-11-24T16:37:55;8.68;;;4.28;;
72335;SDS011;65062;48.446;8.834;2022-11-24T16:40:55;10.32;;;5.20;;
72335;SDS011;65062;48.446;8.834;2022-11-24T16:43:55;10.43;;;6.38;;
72335;SDS011;65062;48.446;8.834;2022-11-24T16:46:56;13.48;;;7.15;;
72335;SDS011;65062;48.446;8.834;2022-11-24T16:49:56;10.63;;;6.07;;
72335;SDS011;65062;48.446;8.834;2022-11-24T16:52:56;8.60;;;4.05;;
72335;SDS011;65062;48.446;8.834;2022-11-24T16:55:57;8.75;;;5.30;;
72335;SDS011;65062;48.446;8.834;2022-11-24T16:58:57;7.13;;;3.40;;
72335;SDS011;65062;48.446;8.834;2022-11-24T17:01:58;5.30;;;3.55;;
72335;SDS011;65062;48.446;8.834;2022-11-24T17:04:58;8.13;;;4.13;;
72335;SDS011;65062;48.446;8.834;2022-11-24T17:07:58;11.40;;;6.40;;
72335;SDS011;65062;48.446;8.834;2022-11-24T17:11:09;16.13;;;6.70;;
72335;SDS011;65062;48.446;8.834;2022-11-24T17:14:10;12.48;;;7.10;;
72335;SDS011;65062;48.446;8.834;2022-11-24T17:17:11;13.82;;;6.40;;
72335;SDS011;65062;48.446;8.834;2022-11-24T17:20:11;8.55;;;4.20;;
72335;SDS011;65062;48.446;8.834;2022-11-24T17:23:12;11.82;;;6.32;;
72335;SDS011;65062;48.446;8.834;2022-11-24T17:26:13;11.13;;;6.40;;
72335;SDS011;65062;48.446;8.834;2022-11-24T17:29:15;14.57;;;8.80;;
72335;SDS011;65062;48.446;8.834;2022-11-24T17:32:15;22.95;;;10.80;;
72335;SDS011;65062;48.446;8.834;2022-11-24T17:35:16;13.32;;;7.82;;
72335;SDS011;65062;48.446;8.834;2022-11-24T17:38:16;20.75;;;9.45;;
72335;SDS011;65062;48.446;8.834;2022-11-24T17:41:17;19.80;;;11.07;;
72335;SDS011;65062;48.446;8.834;2022-11-24T17:44:18;29.60;;;13.30;;
72335;SDS011;65062;48.446;8.834;2022-11-24T17:47:19;17.73;;;9.68;;
72335;SDS011;65062;48.446;8.834;2022-11-24T17:50:19;19.88;;;9.85;;
72335;SDS011;65062;48.446;8.834;2022-11-24T17:53:19;17.60;;;8.13;;
72335;SDS011;65062;48.446;8.834;2022-11-24T17:56:21;14.38;;;7.15;;
72335;SDS011;65062;48.446;8.834;2022-11-24T17:59:25;36.83;;;18.52;;
72335;SDS011;65062;48.446;8.834;2022-11-24T18:02:25;19.45;;;10.68;;
72335;SDS011;65062;48.446;8.834;2022-11-24T18:05:25;32.50;;;14.45;;
72335;SDS011;65062;48.446;8.834;2022-11-24T18:08:26;13.48;;;7.15;;
72335;SDS011;65062;48.446;8.834;2022-11-24T18:11:27;9.23;;;4.93;;
72335;SDS011;65062;48.446;8.834;2022-11-24T18:14:29;14.38;;;5.45;;
72335;SDS011;65062;48.446;8.834;2022-11-24T18:17:29;12.75;;;6.20;;
72335;SDS011;65062;48.446;8.834;2022-11-24T18:20:29;17.20;;;8.90;;
72335;SDS011;65062;48.446;8.834;2022-11-24T18:23:31;15.38;;;7.68;;
72335;SDS011;65062;48.446;8.834;2022-11-24T18:26:35;13.20;;;6.95;;
72335;SDS011;65062;48.446;8.834;2022-11-24T18:29:36;10.80;;;5.40;;
72335;SDS011;65062;48.446;8.834;2022-11-24T18:32:36;17.15;;;8.65;;
72335;SDS011;65062;48.446;8.834;2022-11-24T18:35:36;15.63;;;7.80;;
72335;SDS011;65062;48.446;8.834;2022-11-24T18:38:38;29.45;;;10.02;;
72335;SDS011;65062;48.446;8.834;2022-11-24T18:41:39;26.38;;;9.60;;
72335;SDS011;65062;48.446;8.834;2022-11-24T18:44:39;25.85;;;10.45;;
72335;SDS011;65062;48.446;8.834;2022-11-24T18:47:41;19.85;;;9.77;;
72335;SDS011;65062;48.446;8.834;2022-11-24T18:50:41;19.08;;;7.97;;
72335;SDS011;65062;48.446;8.834;2022-11-24T18:53:42;21.70;;;7.63;;
72335;SDS011;65062;48.446;8.834;2022-11-24T18:56:44;22.63;;;7.85;;
72335;SDS011;65062;48.446;8.834;2022-11-24T18:59:45;20.17;;;6.43;;
72335;SDS011;65062;48.446;8.834;2022-11-24T19:02:49;19.55;;;7.75;;
72335;SDS011;65062;48.446;8.834;2022-11-24T19:05:50;18.85;;;7.97;;
72335;SDS011;65062;48.446;8.834;2022-11-24T19:08:51;19.92;;;5.57;;
72335;SDS011;65062;48.446;8.834;2022-11-24T19:11:52;40.85;;;5.65;;
72335;SDS011;65062;48.446;8.834;2022-11-24T19:14:53;73.38;;;8.35;;
72335;SDS011;65062;48.446;8.834;2022-11-24T19:17:53;27.73;;;7.15;;
72335;SDS011;65062;48.446;8.834;2022-11-24T19:20:56;38.30;;;7.72;;
72335;SDS011;65062;48.446;8.834;2022-11-24T19:23:57;28.92;;;6.78;;
72335;SDS011;65062;48.446;8.834;2022-11-24T19:26:58;38.65;;;9.00;;
72335;SDS011;65062;48.446;8.834;2022-11-24T19:29:58;31.38;;;10.35;;
72335;SDS011;65062;48.446;8.834;2022-11-24T19:32:58;19.88;;;8.05;;
72335;SDS011;65062;48.446;8.834;2022-11-24T19:35:59;13.52;;;7.03;;
72335;SDS011;65062;48.446;8.834;2022-11-24T19:39:02;9.90;;;5.70;;
72335;SDS011;65062;48.446;8.834;2022-11-24T19:42:03;18.17;;;6.90;;
72335;SDS011;65062;48.446;8.834;2022-11-24T19:45:04;12.35;;;6.40;;
72335;SDS011;65062;48.446;8.834;2022-11-24T19:48:05;15.10;;;6.32;;
72335;SDS011;65062;48.446;8.834;2022-11-24T19:51:06;18.55;;;7.57;;
72335;SDS011;65062;48.446;8.834;2022-11-24T19:54:09;21.40;;;7.40;;
72335;SDS011;65062;48.446;8.834;2022-11-24T19:57:12;12.55;;;7.65;;
72335;SDS011;65062;48.446;8.834;2022-11-24T20:00:12;26.40;;;7.25;;
72335;SDS011;65062;48.446;8.834;2022-11-24T20:03:13;17.70;;;5.80;;
72335;SDS011;65062;48.446;8.834;2022-11-24T20:06:14;24.98;;;7.15;;
72335;SDS011;65062;48.446;8.834;2022-11-24T20:09:16;14.38;;;4.78;;
72335;SDS011;65062;48.446;8.834;2022-11-24T20:12:17;21.75;;;4.70;;
72335;SDS011;65062;48.446;8.834;2022-11-24T20:15:17;8.13;;;3.63;;
72335;SDS011;65062;48.446;8.834;2022-11-24T20:18:17;10.32;;;4.75;;
72335;SDS011;65062;48.446;8.834;2022-11-24T20:21:19;15.57;;;5.88;;